24°C Temp
19°C Dewpoint
74% Humidity
Temperature
21 KM/H
13 MPH
11 KTS
60°
East North
East

Wind Speed
Clear
Conditions
Pressure 1018.92 (hPa) - 30.09 (in)
Visibility 6.2 (mi) - 10.0 (km)

Current Conditions
SAEZ
Location 120km(km)
Metar :SAEZ 271100Z 06011KT CAVOK 24/19 Q1019 NOSIG
Sat 27th February 08:00 am

Airport
  Metar Aviation API Data Provided by https://www.checkwx.com/ PHP scripts by weather34.com ©2021